Springfield, MN (56087)

5:22 AM CDT on October 21, 2014 (GMT -0500)
Ryan Farms | Change Station
CLOSE
Current Station
Personal Weather Station
Location: Springfield, MN
Elevation: 1076 ft
Nearby Weather Stations

Elev 1076 ft 44.27 °N, 95.08 °W | Updated 26 seconds ago

Clear
Clear
35.5 °F
Feels Like 36 °F
N
1.0
Wind Variable Wind from WSW
Gusts 1.0 mph

Today
High -- | Low -- °F
--% Chance of Precip.
Yesterday
High -- | Low -- °F
Precip. -- in
7:42 AM 6:25 PM
Waning Crescent, 6% visible
Pressure 30.12 in
Visibility 10.0 miles
Clouds Clear
Windchill 36 °F
Dew Point 34 °F
Humidity 95%
Rainfall 0.00 in
Snow Depth Not available.
UV 0 out of 12
Pollen 1.70 out of 12
Air Quality Not available.
Flu Activity Sporadic
METAR KRWF 210953Z AUTO 09005KT 10SM CLR 04/03 A3011 RMK AO2 SLP199 T00440028

More Conditions Fewer Conditions

Pressure 30.12 in
Visibility 10.0 miles
Clouds Clear
Windchill 36 °F
Dew Point 34 °F
Humidity 95%
Rainfall 0.00 in
Snow Depth Not available.
UV 0 out of 12
Pollen 1.70 out of 12
Air Quality Not available.
Flu Activity Sporadic
METAR KRWF 210953Z AUTO 09005KT 10SM CLR 04/03 A3011 RMK AO2 SLP199 T00440028

More Conditions Fewer Conditions

10-Day Weather Forecast

Almanac

Astronomy

Oct. 21, 2014 Rise Set
Actual Time 7:42 AM CDT 6:25 PM CDT
Civil Twilight 7:12 AM CDT 6:55 PM CDT
Nautical Twilight 6:39 AM CDT 7:29 PM CDT
Astronomical Twilight 6:05 AM CDT 8:02 PM CDT
Moon 5:22 AM CDT 5:24 PM CDT
Length of Visible Light 11h 42m
Length of Day
10h 43m
Tomorrow will be 2m 53s shorter.
Waning Crescent, 6% of the Moon is Illuminated
Today
Waning Crescent
Oct 23
New
Oct 30
First Quarter
Nov 6
Full
Nov 14
Last Quarter

Today's Extremes

State Highs State Lows

Community

WunderPhotos

Upload Photos

1,763,625 photos uploaded!

Nearby

Snow Depth

Station Depth Elevation
No new snow has been reported.

Earthquake Activity

City Distance Mag. Time & Date
No recent earthquake activity has been reported nearby.
Minimum magnitude displayed is 2.5.

Coastal Water Temperatures

Place Temperature
No Stations Reporting

Nearby Weather Stations